Time;durP1;ratioP1;P1;durP2;ratioP2;P2;SDS_P1;SDS_P2;PMS_P1;PMS_P2;Temp;Humidity;BMP_temperature;BMP_pressure;BME280_temperature;BME280_humidity;BME280_pressure;Samples;Min_cycle;Max_cycle;Signal;HPM_P1;HPM_P2
2024/01/08 00:01:29;;;;;;;11.90;11.40;;;1.80;99.90;;;;;;5126677;27;20607;-61
2024/01/08 00:03:55;;;;;;;11.50;11.00;;;1.70;99.90;;;;;;5121132;27;20224;-61
2024/01/08 00:06:23;;;;;;;12.10;11.60;;;1.70;99.90;;;;;;5125182;27;20198;-62
2024/01/08 00:08:50;;;;;;;11.68;11.18;;;1.60;99.90;;;;;;5125926;27;20571;-62
2024/01/08 00:11:17;;;;;;;11.68;11.18;;;1.70;99.90;;;;;;5128072;27;20198;-60
2024/01/08 00:13:44;;;;;;;11.82;11.32;;;1.70;99.90;;;;;;5122735;27;20266;-61
2024/01/08 00:16:11;;;;;;;12.00;11.50;;;1.70;99.90;;;;;;5131061;27;20553;-60
2024/01/08 00:18:37;;;;;;;11.23;10.83;;;1.70;99.90;;;;;;5128067;27;20680;-61
2024/01/08 00:21:03;;;;;;;12.20;11.70;;;1.60;99.90;;;;;;5134603;27;20221;-61
2024/01/08 00:23:33;;;;;;;12.20;11.70;;;1.80;99.90;;;;;;5133355;27;20714;-61
2024/01/08 00:26:00;;;;;;;12.02;11.52;;;1.80;99.90;;;;;;5128965;27;20249;-61
2024/01/08 00:28:26;;;;;;;11.85;11.35;;;1.70;99.90;;;;;;5128409;27;20201;-62
2024/01/08 00:30:53;;;;;;;12.13;11.63;;;1.60;99.90;;;;;;5126219;27;20208;-59
2024/01/08 00:33:20;;;;;;;11.53;11.10;;;1.70;99.90;;;;;;5131971;27;20225;-61
2024/01/08 00:35:46;;;;;;;13.80;13.10;;;1.60;99.90;;;;;;5125187;27;20647;-62
2024/01/08 00:38:13;;;;;;;12.20;11.70;;;1.60;99.90;;;;;;5128909;27;20209;-61
2024/01/08 00:40:41;;;;;;;12.47;11.97;;;1.60;99.90;;;;;;5130223;27;20225;-60
2024/01/08 00:43:08;;;;;;;11.20;10.80;;;1.60;99.90;;;;;;5125161;27;20226;-59
2024/01/08 00:45:35;;;;;;;12.63;12.07;;;1.70;99.90;;;;;;5125930;27;20682;-61
2024/01/08 00:48:01;;;;;;;11.32;10.85;;;1.70;99.90;;;;;;5127770;27;20212;-60
2024/01/08 00:50:28;;;;;;;11.75;11.25;;;1.60;99.90;;;;;;5123908;27;20205;-60
2024/01/08 00:52:55;;;;;;;12.07;11.57;;;1.50;99.90;;;;;;5123126;27;20237;-61
2024/01/08 00:55:21;;;;;;;12.23;11.70;;;1.50;99.90;;;;;;5133160;27;20201;-59
2024/01/08 00:57:49;;;;;;;12.02;11.52;;;1.40;99.90;;;;;;5126889;27;20683;-62
2024/01/08 01:00:16;;;;;;;11.73;11.23;;;1.40;99.90;;;;;;5126162;27;20222;-62
2024/01/08 01:02:43;;;;;;;10.90;10.50;;;1.50;99.90;;;;;;5122158;27;20218;-60
2024/01/08 01:05:10;;;;;;;12.77;12.17;;;1.50;99.90;;;;;;5118883;27;20222;-60
2024/01/08 01:07:37;;;;;;;13.05;12.38;;;1.50;99.90;;;;;;5124463;27;20213;-59
2024/01/08 01:10:04;;;;;;;12.35;11.82;;;1.50;99.90;;;;;;5122890;27;20216;-62
2024/01/08 01:12:30;;;;;;;11.90;11.40;;;1.50;99.90;;;;;;5128020;27;20224;-61
2024/01/08 01:14:58;;;;;;;11.93;11.43;;;1.50;99.90;;;;;;5123548;27;20201;-60
2024/01/08 01:17:25;;;;;;;11.55;11.05;;;1.50;99.90;;;;;;5127969;27;20217;-60
2024/01/08 01:19:52;;;;;;;11.90;11.40;;;1.50;99.90;;;;;;5128500;27;20672;-60
2024/01/08 01:22:19;;;;;;;12.23;11.73;;;1.60;99.90;;;;;;5121682;27;20332;-59
2024/01/08 01:24:45;;;;;;;11.73;11.25;;;1.60;99.90;;;;;;5127593;27;20212;-62
2024/01/08 01:27:12;;;;;;;12.30;11.80;;;1.70;99.90;;;;;;5120025;27;20654;-60
2024/01/08 01:29:39;;;;;;;11.60;11.10;;;1.80;99.90;;;;;;5131536;27;20197;-60
2024/01/08 01:32:07;;;;;;;12.23;11.73;;;1.80;99.90;;;;;;5126653;27;20880;-62
2024/01/08 01:34:34;;;;;;;11.90;11.40;;;1.70;99.90;;;;;;5128872;27;20205;-63
2024/01/08 01:37:01;;;;;;;12.88;12.27;;;1.60;99.90;;;;;;5128687;27;20258;-60
2024/01/08 01:39:29;;;;;;;12.57;12.07;;;1.60;99.90;;;;;;5125654;27;20201;-60
2024/01/08 01:41:56;;;;;;;12.43;11.93;;;1.60;99.90;;;;;;5131279;27;20232;-60
2024/01/08 01:44:22;;;;;;;11.83;11.33;;;1.70;99.90;;;;;;5125385;27;20202;-62
2024/01/08 01:46:51;;;;;;;11.32;10.93;;;1.70;99.90;;;;;;5136359;27;20297;-62
2024/01/08 01:49:20;;;;;;;11.23;10.82;;;1.70;99.90;;;;;;5129932;27;20250;-60
2024/01/08 01:51:48;;;;;;;11.83;11.33;;;1.70;99.90;;;;;;5126512;27;20285;-60
2024/01/08 01:54:16;;;;;;;12.37;11.87;;;1.70;99.90;;;;;;5134409;27;20208;-63
2024/01/08 01:56:47;;;;;;;12.37;11.87;;;1.70;99.90;;;;;;5133741;27;20224;-60
2024/01/08 01:59:17;;;;;;;11.23;10.83;;;1.70;99.90;;;;;;5123077;27;20748;-60
2024/01/08 02:01:45;;;;;;;12.27;11.77;;;1.90;99.90;;;;;;5132534;27;20447;-60
2024/01/08 02:04:13;;;;;;;12.87;12.37;;;2.00;99.90;;;;;;5132215;27;20233;-61
2024/01/08 02:06:42;;;;;;;11.77;11.38;;;2.00;99.90;;;;;;5110807;27;20209;-61
2024/01/08 02:09:10;;;;;;;12.70;12.20;;;2.00;99.90;;;;;;5115596;28;20210;-60
2024/01/08 02:11:37;;;;;;;13.20;12.60;;;2.10;99.90;;;;;;5112823;28;20226;-61
2024/01/08 02:14:03;;;;;;;13.10;12.60;;;2.10;99.90;;;;;;5112403;28;20293;-61
2024/01/08 02:16:30;;;;;;;13.63;13.02;;;2.20;99.90;;;;;;5111700;28;20194;-61
2024/01/08 02:18:57;;;;;;;13.32;12.82;;;2.20;99.90;;;;;;5112246;28;20212;-60
2024/01/08 02:21:24;;;;;;;14.98;14.38;;;2.20;99.90;;;;;;5111710;28;20217;-60
2024/01/08 02:23:52;;;;;;;14.02;13.48;;;2.20;99.90;;;;;;5111468;28;20226;-61
2024/01/08 02:26:19;;;;;;;13.90;13.32;;;2.10;99.90;;;;;;5108308;28;20201;-61
2024/01/08 02:28:46;;;;;;;13.20;12.70;;;2.10;99.90;;;;;;5111361;28;20205;-61
2024/01/08 02:31:13;;;;;;;13.77;13.27;;;2.10;99.90;;;;;;5111444;28;20683;-61
2024/01/08 02:33:39;;;;;;;13.00;12.50;;;2.20;99.90;;;;;;5110164;27;20241;-60
2024/01/08 02:36:07;;;;;;;13.47;12.97;;;2.30;99.90;;;;;;5104858;28;20209;-62
2024/01/08 02:38:33;;;;;;;12.93;12.43;;;2.30;99.90;;;;;;5110835;28;20202;-59
2024/01/08 02:41:01;;;;;;;13.70;13.20;;;2.20;99.90;;;;;;5111433;28;20218;-61
2024/01/08 02:43:28;;;;;;;12.95;12.45;;;2.20;99.90;;;;;;5111292;28;20221;-59
2024/01/08 02:45:55;;;;;;;14.00;13.40;;;2.30;99.90;;;;;;5110482;28;20561;-63
2024/01/08 02:48:22;;;;;;;13.63;13.13;;;2.40;99.90;;;;;;5110703;28;20216;-59
2024/01/08 02:50:48;;;;;;;13.25;12.75;;;2.50;99.90;;;;;;5111232;28;20197;-60
2024/01/08 02:53:15;;;;;;;15.00;14.40;;;2.30;99.90;;;;;;5110995;28;20218;-62
2024/01/08 02:55:42;;;;;;;15.47;14.77;;;2.10;99.90;;;;;;5110177;28;20699;-60
2024/01/08 02:58:10;;;;;;;13.50;13.00;;;2.00;99.90;;;;;;5110761;28;20210;-61
2024/01/08 03:00:37;;;;;;;13.87;13.27;;;2.00;99.90;;;;;;5105842;28;20214;-60
2024/01/08 03:03:04;;;;;;;13.90;13.32;;;2.10;99.90;;;;;;5109563;28;20222;-61
2024/01/08 03:05:31;;;;;;;13.88;13.30;;;2.20;99.90;;;;;;5108058;28;20208;-60
2024/01/08 03:07:57;;;;;;;13.47;12.87;;;2.30;99.90;;;;;;5110087;28;20198;-60
2024/01/08 03:10:24;;;;;;;12.80;12.40;;;2.30;99.90;;;;;;5110965;28;20276;-60
2024/01/08 03:12:51;;;;;;;13.65;13.15;;;2.20;99.90;;;;;;5110780;28;20225;-60
2024/01/08 03:15:19;;;;;;;13.68;13.18;;;2.20;99.90;;;;;;5110499;28;20202;-60
2024/01/08 03:17:45;;;;;;;13.43;12.93;;;2.30;99.90;;;;;;5103226;28;20218;-61
2024/01/08 03:20:12;;;;;;;13.75;13.25;;;2.20;99.90;;;;;;5110403;28;20758;-61
2024/01/08 03:22:40;;;;;;;13.80;13.30;;;2.20;99.90;;;;;;5110522;28;20229;-61
2024/01/08 03:25:07;;;;;;;14.97;14.37;;;2.20;99.90;;;;;;5110339;28;20270;-61
2024/01/08 03:27:34;;;;;;;13.40;12.90;;;2.10;99.90;;;;;;5110506;28;20214;-60
2024/01/08 03:30:00;;;;;;;14.37;13.77;;;2.00;99.90;;;;;;5114360;28;20867;-60
2024/01/08 03:32:28;;;;;;;13.90;13.40;;;2.00;99.90;;;;;;5114738;28;20240;-61
2024/01/08 03:34:55;;;;;;;14.32;13.73;;;2.00;99.90;;;;;;5110968;28;20213;-61
2024/01/08 03:37:22;;;;;;;14.13;13.63;;;2.10;99.90;;;;;;5112634;28;20211;-61
2024/01/08 03:39:48;;;;;;;14.47;13.90;;;2.10;99.90;;;;;;5114143;27;20210;-61
2024/01/08 03:42:15;;;;;;;14.27;13.70;;;2.00;99.90;;;;;;5114206;28;20232;-62
2024/01/08 03:44:42;;;;;;;13.10;12.60;;;2.00;99.90;;;;;;5115039;28;20202;-61
2024/01/08 03:47:10;;;;;;;15.27;14.60;;;2.00;99.90;;;;;;5114732;28;20209;-61
2024/01/08 03:49:38;;;;;;;14.30;13.70;;;2.10;99.90;;;;;;5114548;28;20619;-63
2024/01/08 03:52:05;;;;;;;14.90;14.30;;;2.10;99.90;;;;;;5114044;28;20218;-63
2024/01/08 03:54:32;;;;;;;13.27;12.77;;;2.00;99.90;;;;;;5114408;27;20202;-62
2024/01/08 03:56:59;;;;;;;14.80;14.20;;;2.10;99.90;;;;;;5113790;28;20205;-61
2024/01/08 03:59:26;;;;;;;14.27;13.67;;;2.10;99.90;;;;;;5114183;28;20618;-60
2024/01/08 04:01:53;;;;;;;14.90;14.30;;;2.10;99.90;;;;;;5113740;28;20221;-61
2024/01/08 04:04:21;;;;;;;14.50;14.00;;;1.90;99.90;;;;;;5114132;28;20202;-60
2024/01/08 04:06:49;;;;;;;15.33;14.73;;;2.00;99.90;;;;;;5112478;28;20297;-61
2024/01/08 04:09:17;;;;;;;15.33;14.73;;;2.10;99.90;;;;;;5111518;28;20217;-62
2024/01/08 04:11:44;;;;;;;14.65;14.05;;;2.10;99.90;;;;;;5113155;28;20756;-60
2024/01/08 04:14:12;;;;;;;14.80;14.20;;;2.10;99.90;;;;;;5113588;27;20202;-61
2024/01/08 04:16:39;;;;;;;14.57;13.98;;;2.10;99.90;;;;;;5126290;27;20209;-62
2024/01/08 04:19:06;;;;;;;14.73;14.13;;;2.10;99.90;;;;;;5126367;27;20209;-61
2024/01/08 04:21:32;;;;;;;15.15;14.65;;;2.10;99.90;;;;;;5126309;27;20214;-60
2024/01/08 04:24:00;;;;;;;15.33;14.73;;;2.00;99.90;;;;;;5125419;27;20228;-62
2024/01/08 04:26:27;;;;;;;14.88;14.27;;;1.90;99.90;;;;;;5122810;27;20202;-62
2024/01/08 04:28:54;;;;;;;14.70;14.10;;;2.00;99.90;;;;;;5126656;27;20204;-61
2024/01/08 04:31:21;;;;;;;14.25;13.65;;;1.90;99.90;;;;;;5124756;27;20660;-60
2024/01/08 04:33:48;;;;;;;12.90;12.47;;;2.00;99.90;;;;;;5127690;27;20236;-62
2024/01/08 04:36:15;;;;;;;13.55;13.05;;;2.10;99.90;;;;;;5123914;27;20213;-62
2024/01/08 04:38:44;;;;;;;13.75;13.25;;;2.10;99.90;;;;;;5127563;27;20201;-60
2024/01/08 04:41:18;;;;;;;14.10;13.50;;;2.20;99.90;;;;;;5125144;27;20292;-62
2024/01/08 04:43:45;;;;;;;14.65;14.05;;;2.20;99.90;;;;;;5126599;27;20221;-63
2024/01/08 04:46:11;;;;;;;14.60;14.00;;;2.30;99.90;;;;;;5124612;27;20640;-62
2024/01/08 04:48:38;;;;;;;14.90;14.30;;;2.30;99.90;;;;;;5124939;27;20213;-61
2024/01/08 04:51:05;;;;;;;15.00;14.40;;;2.30;99.90;;;;;;5127595;27;20213;-61
2024/01/08 04:53:34;;;;;;;14.70;14.10;;;2.30;99.90;;;;;;5125027;27;20221;-62
2024/01/08 04:56:01;;;;;;;14.73;14.13;;;2.30;99.90;;;;;;5128192;27;20235;-62
2024/01/08 04:58:29;;;;;;;14.40;13.80;;;2.30;99.90;;;;;;5125442;27;20294;-61
2024/01/08 05:00:56;;;;;;;14.60;14.00;;;2.20;99.90;;;;;;5123692;27;20260;-60
2024/01/08 05:03:23;;;;;;;14.97;14.37;;;2.30;99.90;;;;;;5125659;27;20225;-60
2024/01/08 05:05:49;;;;;;;14.65;14.05;;;2.30;99.90;;;;;;5125073;27;20232;-61
2024/01/08 05:08:16;;;;;;;15.10;14.50;;;2.30;99.90;;;;;;5123390;27;20205;-63
2024/01/08 05:10:43;;;;;;;15.87;15.27;;;2.30;99.90;;;;;;5125100;27;20205;-60
2024/01/08 05:13:09;;;;;;;15.70;15.10;;;2.40;99.90;;;;;;5123478;27;20209;-61
2024/01/08 05:15:37;;;;;;;16.73;16.00;;;2.40;99.90;;;;;;5126454;27;20252;-61
2024/01/08 05:18:05;;;;;;;15.38;14.77;;;2.40;99.90;;;;;;5127206;27;20594;-62
2024/01/08 05:20:32;;;;;;;15.67;15.07;;;2.50;99.90;;;;;;5126198;27;20205;-61
2024/01/08 05:22:59;;;;;;;13.60;13.07;;;2.40;99.90;;;;;;5126694;27;20228;-63
2024/01/08 05:25:26;;;;;;;15.23;14.63;;;2.30;99.90;;;;;;5121053;27;20302;-60
2024/01/08 05:27:52;;;;;;;15.38;14.77;;;2.30;99.90;;;;;;5127795;27;20216;-61
2024/01/08 05:30:19;;;;;;;15.45;14.85;;;2.30;99.90;;;;;;5124491;27;20201;-60
2024/01/08 05:32:50;;;;;;;15.37;14.77;;;2.20;99.90;;;;;;5129170;27;20221;-60
2024/01/08 05:35:16;;;;;;;15.15;14.55;;;2.20;99.90;;;;;;5122988;27;20213;-61
2024/01/08 05:37:43;;;;;;;12.93;12.43;;;2.10;99.90;;;;;;5137107;27;20212;-62
2024/01/08 05:40:11;;;;;;;14.15;13.65;;;2.00;99.90;;;;;;5135496;27;20201;-62
2024/01/08 05:42:38;;;;;;;15.75;15.15;;;2.00;99.90;;;;;;5137766;27;20311;-60
2024/01/08 05:45:06;;;;;;;14.67;14.07;;;2.00;99.90;;;;;;5143046;27;20201;-61
2024/01/08 05:47:34;;;;;;;15.93;15.23;;;2.00;99.90;;;;;;5142591;27;20209;-60
2024/01/08 05:50:04;;;;;;;15.95;15.25;;;2.00;99.90;;;;;;5130977;27;20197;-60
2024/01/08 05:52:31;;;;;;;15.50;14.90;;;2.00;99.90;;;;;;5122153;27;20259;-61
2024/01/08 05:54:57;;;;;;;15.33;14.73;;;2.00;99.90;;;;;;5125132;27;20212;-62
2024/01/08 05:57:24;;;;;;;15.70;15.10;;;2.10;99.90;;;;;;5118524;27;20201;-61
2024/01/08 05:59:51;;;;;;;15.45;14.85;;;2.10;99.90;;;;;;5124917;27;20201;-61
2024/01/08 06:02:18;;;;;;;15.52;14.93;;;2.10;99.90;;;;;;5118609;27;20225;-61
2024/01/08 06:04:44;;;;;;;16.80;16.02;;;2.10;99.90;;;;;;5114597;27;20206;-61
2024/01/08 06:07:13;;;;;;;15.07;14.48;;;2.10;99.90;;;;;;5115722;27;20285;-60
2024/01/08 06:09:39;;;;;;;16.80;16.17;;;2.00;99.90;;;;;;5116311;27;20198;-65
2024/01/08 06:12:06;;;;;;;15.40;14.80;;;2.00;99.90;;;;;;5106837;28;20229;-65
2024/01/08 06:14:34;;;;;;;15.80;15.20;;;2.20;99.90;;;;;;5112068;27;20202;-64
2024/01/08 06:17:01;;;;;;;15.70;15.10;;;2.20;99.90;;;;;;5113105;27;20210;-64
2024/01/08 06:19:28;;;;;;;16.20;15.53;;;2.10;99.90;;;;;;5111447;27;20209;-64
2024/01/08 06:21:54;;;;;;;15.32;14.73;;;2.20;99.90;;;;;;5117868;27;20221;-64
2024/01/08 06:24:22;;;;;;;15.63;15.03;;;2.10;99.90;;;;;;5110534;28;20202;-64
2024/01/08 06:26:49;;;;;;;15.60;15.00;;;2.10;99.90;;;;;;5114722;27;20201;-64
2024/01/08 06:29:16;;;;;;;16.00;15.40;;;2.20;99.90;;;;;;5119511;27;20236;-64
2024/01/08 06:31:43;;;;;;;15.93;15.27;;;2.20;99.90;;;;;;5110490;27;20611;-67
2024/01/08 06:34:10;;;;;;;16.10;15.40;;;2.20;99.90;;;;;;5118789;27;20202;-64
2024/01/08 06:36:38;;;;;;;15.88;15.27;;;2.20;99.90;;;;;;5114362;27;20699;-65
2024/01/08 06:39:05;;;;;;;15.48;14.88;;;2.20;99.90;;;;;;5117819;27;20206;-64
2024/01/08 06:41:33;;;;;;;15.38;14.77;;;2.10;99.90;;;;;;5125735;27;20671;-64
2024/01/08 06:44:00;;;;;;;14.23;13.73;;;2.10;99.90;;;;;;5124205;27;20230;-66
2024/01/08 06:46:27;;;;;;;14.50;13.90;;;2.10;99.90;;;;;;5116573;27;20217;-65
2024/01/08 06:48:54;;;;;;;14.98;14.38;;;2.20;99.90;;;;;;5115261;27;20206;-65
2024/01/08 06:51:20;;;;;;;14.98;14.38;;;2.20;99.90;;;;;;5115518;27;20213;-64
2024/01/08 06:53:48;;;;;;;15.15;14.55;;;2.20;99.90;;;;;;5120699;27;20217;-64
2024/01/08 06:56:14;;;;;;;15.50;14.90;;;2.20;99.90;;;;;;5115186;27;20208;-65
2024/01/08 06:58:42;;;;;;;15.32;14.70;;;2.10;99.90;;;;;;5116110;27;20206;-65
2024/01/08 07:01:09;;;;;;;15.23;14.63;;;2.10;99.90;;;;;;5116634;27;20670;-66
2024/01/08 07:03:36;;;;;;;14.88;14.27;;;2.20;99.90;;;;;;5117009;27;20236;-66
2024/01/08 07:06:03;;;;;;;15.27;14.67;;;2.20;99.90;;;;;;5113324;27;20197;-64
2024/01/08 07:08:30;;;;;;;15.30;14.70;;;1.90;99.90;;;;;;5109725;28;20206;-65
2024/01/08 07:10:56;;;;;;;14.10;13.60;;;1.90;99.90;;;;;;5119719;28;20208;-66
2024/01/08 07:13:23;;;;;;;15.20;14.60;;;2.00;99.90;;;;;;5121322;27;20214;-66
2024/01/08 07:15:52;;;;;;;16.25;15.45;;;1.90;99.90;;;;;;5131369;28;20209;-65
2024/01/08 07:18:19;;;;;;;15.37;14.77;;;1.80;99.90;;;;;;5127225;27;20302;-65
2024/01/08 07:20:46;;;;;;;13.82;13.32;;;1.90;99.90;;;;;;5123027;28;20242;-63
2024/01/08 07:23:13;;;;;;;14.82;14.23;;;1.90;99.90;;;;;;5126690;28;20229;-65
2024/01/08 07:25:41;;;;;;;14.40;13.77;;;2.00;99.90;;;;;;5120207;28;20650;-64
2024/01/08 07:28:09;;;;;;;14.50;13.90;;;2.00;99.90;;;;;;5125417;28;20308;-63
2024/01/08 07:30:37;;;;;;;15.18;14.57;;;2.00;99.90;;;;;;5116941;28;20719;-64
2024/01/08 07:33:06;;;;;;;14.73;14.13;;;1.90;99.90;;;;;;5114774;28;20229;-65
2024/01/08 07:35:33;;;;;;;15.02;14.43;;;1.80;99.90;;;;;;5111671;28;20194;-64
2024/01/08 07:38:00;;;;;;;14.20;13.60;;;1.90;99.90;;;;;;5118315;27;20205;-64
2024/01/08 07:40:27;;;;;;;14.30;13.70;;;1.90;99.90;;;;;;5114716;27;20307;-64
2024/01/08 07:42:54;;;;;;;14.40;13.80;;;2.00;99.90;;;;;;5113812;28;20706;-66
2024/01/08 07:45:22;;;;;;;14.63;14.02;;;1.90;99.90;;;;;;5120257;28;20197;-64
2024/01/08 07:47:49;;;;;;;14.23;13.63;;;2.00;99.90;;;;;;5116045;28;20199;-65
2024/01/08 07:50:18;;;;;;;15.07;14.48;;;2.00;99.90;;;;;;5115409;28;20206;-65
2024/01/08 07:52:44;;;;;;;13.60;13.10;;;2.00;99.90;;;;;;5112148;28;20233;-65
2024/01/08 07:55:11;;;;;;;14.63;14.02;;;1.90;99.90;;;;;;5112985;28;20213;-64
2024/01/08 07:57:38;;;;;;;14.15;13.57;;;2.00;99.90;;;;;;5114667;28;20217;-65
2024/01/08 08:00:09;;;;;;;14.93;14.32;;;2.00;99.90;;;;;;5118589;28;20205;-65
2024/01/08 08:02:36;;;;;;;14.73;14.13;;;2.10;99.90;;;;;;5120834;28;20727;-67
2024/01/08 08:05:03;;;;;;;14.27;13.77;;;2.00;99.90;;;;;;5112812;27;20535;-64
2024/01/08 08:07:31;;;;;;;14.50;13.93;;;2.00;99.90;;;;;;5114074;28;20266;-66
2024/01/08 08:09:58;;;;;;;14.17;13.57;;;2.00;99.90;;;;;;5111191;28;20209;-65
2024/01/08 08:12:24;;;;;;;13.20;12.70;;;2.10;99.90;;;;;;5112824;28;20218;-64
2024/01/08 08:14:51;;;;;;;14.23;13.70;;;2.10;99.90;;;;;;5113918;28;20305;-66
2024/01/08 08:17:18;;;;;;;14.77;14.17;;;2.00;99.90;;;;;;5116116;27;20217;-65
2024/01/08 08:19:45;;;;;;;15.57;14.97;;;1.90;99.90;;;;;;5122868;27;20283;-63
2024/01/08 08:22:12;;;;;;;14.52;13.93;;;1.80;99.90;;;;;;5120477;27;20222;-63
2024/01/08 08:24:41;;;;;;;13.60;13.00;;;1.80;99.90;;;;;;5121290;27;20225;-64
2024/01/08 08:27:10;;;;;;;13.93;13.32;;;2.00;99.90;;;;;;5117265;27;20205;-64
2024/01/08 08:29:38;;;;;;;13.07;12.57;;;2.20;99.90;;;;;;5116151;27;20275;-65
2024/01/08 08:32:05;;;;;;;14.27;13.67;;;2.30;99.90;;;;;;5116415;27;20366;-65
2024/01/08 08:34:33;;;;;;;14.90;14.30;;;2.20;99.90;;;;;;5115373;27;20205;-65
2024/01/08 08:36:59;;;;;;;15.60;14.90;;;2.10;99.90;;;;;;5112815;28;20284;-65
2024/01/08 08:39:26;;;;;;;15.03;14.43;;;2.00;99.90;;;;;;5114842;27;20205;-64
2024/01/08 08:41:55;;;;;;;13.68;13.07;;;2.00;99.90;;;;;;5111810;28;20198;-65
2024/01/08 08:44:22;;;;;;;13.53;13.03;;;1.90;99.90;;;;;;5116160;27;20221;-64
2024/01/08 08:46:48;;;;;;;16.15;15.45;;;1.90;99.90;;;;;;5118101;27;20206;-64
2024/01/08 08:49:16;;;;;;;14.43;13.88;;;2.00;99.90;;;;;;5118945;27;20210;-65
2024/01/08 08:51:43;;;;;;;15.18;14.57;;;2.10;99.90;;;;;;5114887;28;20212;-64
2024/01/08 08:54:10;;;;;;;14.97;14.37;;;2.00;99.90;;;;;;5122447;27;20206;-64
2024/01/08 08:56:37;;;;;;;16.13;15.47;;;2.10;99.90;;;;;;5116836;27;20205;-65
2024/01/08 08:59:05;;;;;;;13.90;13.33;;;2.10;99.90;;;;;;5117462;27;20198;-65
2024/01/08 09:01:32;;;;;;;14.67;14.07;;;2.20;99.90;;;;;;5112973;27;20586;-64
2024/01/08 09:04:00;;;;;;;14.50;13.90;;;2.30;99.90;;;;;;5122532;27;20304;-65
2024/01/08 09:06:27;;;;;;;14.45;13.85;;;2.20;99.90;;;;;;5120912;27;20651;-64
2024/01/08 09:08:55;;;;;;;15.43;14.83;;;2.30;99.90;;;;;;5118077;27;20737;-65
2024/01/08 09:11:22;;;;;;;15.05;14.45;;;2.40;99.90;;;;;;5120228;27;20202;-65
2024/01/08 09:13:49;;;;;;;14.73;14.13;;;2.50;99.90;;;;;;5122381;27;20217;-65
2024/01/08 09:16:17;;;;;;;13.43;12.93;;;2.50;99.90;;;;;;5115346;27;20295;-65
2024/01/08 09:18:45;;;;;;;14.05;13.45;;;2.50;99.90;;;;;;5116401;27;20206;-64
2024/01/08 09:21:12;;;;;;;15.95;15.35;;;2.50;99.90;;;;;;5121890;27;20255;-63
2024/01/08 09:23:39;;;;;;;16.10;15.50;;;2.50;99.90;;;;;;5124213;27;20316;-66
2024/01/08 09:26:07;;;;;;;16.43;15.83;;;2.50;99.90;;;;;;5117995;27;20206;-65
2024/01/08 09:28:34;;;;;;;16.52;15.93;;;2.40;99.90;;;;;;5113187;27;20285;-64
2024/01/08 09:31:02;;;;;;;18.05;17.30;;;2.40;99.90;;;;;;5125205;27;20254;-62
2024/01/08 09:33:30;;;;;;;17.42;16.73;;;2.40;99.90;;;;;;5125347;27;20228;-66
2024/01/08 09:35:57;;;;;;;17.53;16.83;;;2.50;99.90;;;;;;5125075;27;20225;-64
2024/01/08 09:38:24;;;;;;;18.55;17.77;;;2.50;99.90;;;;;;5120831;27;20719;-65
2024/01/08 09:40:51;;;;;;;14.75;14.15;;;2.50;99.90;;;;;;5126480;27;20588;-64
2024/01/08 09:43:19;;;;;;;16.00;15.40;;;2.20;99.90;;;;;;5131104;27;20221;-65
2024/01/08 09:46:00;;;;;;;16.60;15.90;;;2.50;99.90;;;;;;5114936;28;20240;-66
2024/01/08 09:48:27;;;;;;;15.52;14.93;;;2.60;99.90;;;;;;5115562;27;20259;-65
2024/01/08 09:50:56;;;;;;;14.27;13.67;;;2.80;99.90;;;;;;5117143;27;20660;-65
2024/01/08 09:53:23;;;;;;;15.33;14.73;;;2.70;99.90;;;;;;5115280;27;20256;-65
2024/01/08 09:55:50;;;;;;;16.70;15.90;;;2.60;99.90;;;;;;5119362;27;20691;-66
2024/01/08 09:58:18;;;;;;;15.38;14.77;;;2.60;99.90;;;;;;5117123;27;20241;-64
2024/01/08 10:00:44;;;;;;;15.27;14.67;;;2.70;99.90;;;;;;5113084;27;20468;-63
2024/01/08 10:03:13;;;;;;;14.80;14.20;;;2.70;99.90;;;;;;5117990;27;20222;-64
2024/01/08 10:05:40;;;;;;;15.52;14.85;;;2.50;99.90;;;;;;5116609;27;20197;-64
2024/01/08 10:08:08;;;;;;;14.40;13.90;;;2.50;99.90;;;;;;5114102;27;20236;-63
2024/01/08 10:10:35;;;;;;;15.32;14.73;;;2.60;99.90;;;;;;5114557;27;20214;-64
2024/01/08 10:13:03;;;;;;;15.57;14.97;;;2.60;99.90;;;;;;5122261;27;20222;-65
2024/01/08 10:15:30;;;;;;;15.60;15.00;;;2.30;99.90;;;;;;5114757;27;20209;-65
2024/01/08 10:18:01;;;;;;;14.90;14.30;;;2.40;99.90;;;;;;5110622;27;20210;-64
2024/01/08 10:20:28;;;;;;;14.93;14.33;;;2.60;99.90;;;;;;5121277;27;20214;-65
2024/01/08 10:23:05;;;;;;;17.05;16.35;;;2.40;99.90;;;;;;5119366;27;20229;-66
2024/01/08 10:25:34;;;;;;;16.03;15.43;;;2.50;99.90;;;;;;5116986;27;20193;-64
2024/01/08 10:28:01;;;;;;;16.00;15.30;;;2.30;99.90;;;;;;5113142;27;20680;-64
2024/01/08 10:30:28;;;;;;;14.48;13.88;;;2.40;99.90;;;;;;5118234;27;20632;-63
2024/01/08 10:32:58;;;;;;;14.50;14.00;;;2.50;99.90;;;;;;5114359;27;20313;-63
2024/01/08 10:35:27;;;;;;;17.03;16.33;;;2.60;99.90;;;;;;5110009;27;20266;-65
2024/01/08 10:37:55;;;;;;;16.67;16.00;;;2.80;99.90;;;;;;5108030;27;20206;-64
2024/01/08 10:40:21;;;;;;;16.25;15.65;;;2.90;99.90;;;;;;5119276;27;20246;-65
2024/01/08 10:42:50;;;;;;;15.10;14.50;;;2.80;99.90;;;;;;5109331;28;20657;-65
2024/01/08 10:45:17;;;;;;;15.57;14.87;;;2.70;99.90;;;;;;5115783;27;20245;-65
2024/01/08 10:47:51;;;;;;;16.42;15.82;;;2.70;99.90;;;;;;5114512;27;20289;-65
2024/01/08 10:50:20;;;;;;;16.20;15.60;;;2.80;99.90;;;;;;5117633;27;20274;-64
2024/01/08 10:52:52;;;;;;;16.63;15.93;;;2.80;99.90;;;;;;5118144;27;20602;-65
2024/01/08 10:55:22;;;;;;;17.77;17.07;;;2.70;99.90;;;;;;5118758;27;20227;-65
2024/01/08 10:57:56;;;;;;;15.48;14.88;;;2.70;99.90;;;;;;5114246;27;20342;-64
2024/01/08 11:00:23;;;;;;;19.07;18.37;;;2.70;99.90;;;;;;5112512;27;20215;-64
2024/01/08 11:02:51;;;;;;;15.93;15.33;;;2.50;99.90;;;;;;5116704;27;20235;-65
2024/01/08 11:05:20;;;;;;;15.95;15.35;;;2.50;99.90;;;;;;5109328;28;20226;-65
2024/01/08 11:07:49;;;;;;;17.07;16.37;;;2.50;99.90;;;;;;5107797;28;20201;-65
2024/01/08 11:10:17;;;;;;;14.40;13.90;;;2.50;99.90;;;;;;5114858;28;20209;-66
2024/01/08 11:12:54;;;;;;;14.50;13.90;;;2.60;99.90;;;;;;5122891;27;20241;-65
2024/01/08 11:15:22;;;;;;;16.55;15.85;;;2.60;99.90;;;;;;5105288;28;20220;-64
2024/01/08 11:17:53;;;;;;;16.15;15.55;;;2.50;99.90;;;;;;5113301;28;20258;-65
2024/01/08 11:20:42;;;;;;;16.75;16.15;;;2.60;99.90;;;;;;5110835;28;20201;-63
2024/01/08 11:23:31;;;;;;;15.03;14.43;;;2.60;99.90;;;;;;5111701;28;20225;-65
2024/01/08 11:25:59;;;;;;;14.60;14.00;;;2.70;99.90;;;;;;5115931;28;20213;-65
2024/01/08 11:28:27;;;;;;;14.97;14.37;;;2.80;99.90;;;;;;5115762;27;20660;-65
2024/01/08 11:31:07;;;;;;;16.38;15.73;;;2.80;99.90;;;;;;5115528;27;20206;-65
2024/01/08 11:33:46;;;;;;;16.93;16.27;;;2.80;99.90;;;;;;5109994;28;20216;-64
2024/01/08 11:36:16;;;;;;;16.70;16.00;;;2.80;99.90;;;;;;5110030;28;20202;-64
2024/01/08 11:39:00;;;;;;;15.90;15.27;;;2.60;99.90;;;;;;5109352;28;20266;-64
2024/01/08 11:41:26;;;;;;;15.32;14.73;;;2.70;99.90;;;;;;5108708;28;20212;-65
2024/01/08 11:43:55;;;;;;;15.83;15.23;;;2.80;99.90;;;;;;5112440;28;20240;-63
2024/01/08 11:46:22;;;;;;;15.98;15.38;;;2.60;99.90;;;;;;5105348;28;20202;-65
2024/01/08 11:48:49;;;;;;;16.03;15.43;;;2.60;99.90;;;;;;5116413;27;20691;-65
2024/01/08 11:51:16;;;;;;;15.00;14.48;;;2.60;99.90;;;;;;5123266;27;20209;-65
2024/01/08 11:53:45;;;;;;;15.05;14.45;;;2.70;99.90;;;;;;5125245;27;20218;-65
2024/01/08 11:56:11;;;;;;;14.10;13.60;;;2.80;99.90;;;;;;5121540;27;20210;-64
2024/01/08 11:58:38;;;;;;;13.90;13.40;;;2.80;99.90;;;;;;5114378;27;20206;-65
2024/01/08 12:01:17;;;;;;;14.40;13.80;;;2.90;99.90;;;;;;5115805;27;20210;-64
2024/01/08 12:03:44;;;;;;;14.77;14.17;;;2.90;99.90;;;;;;5121658;27;20741;-64
2024/01/08 12:06:12;;;;;;;14.33;13.73;;;2.80;99.90;;;;;;5118195;27;20194;-64
2024/01/08 12:08:39;;;;;;;14.45;13.85;;;2.90;99.90;;;;;;5113876;27;20206;-63
2024/01/08 12:11:06;;;;;;;13.75;13.25;;;3.00;99.90;;;;;;5114175;27;20210;-64
2024/01/08 12:13:33;;;;;;;15.17;14.57;;;3.00;99.90;;;;;;5122327;27;20228;-64
2024/01/08 12:16:01;;;;;;;15.13;14.53;;;3.00;99.90;;;;;;5122161;27;20299;-64
2024/01/08 12:18:30;;;;;;;14.48;13.90;;;3.00;99.90;;;;;;5116027;27;20265;-65
2024/01/08 12:20:57;;;;;;;15.47;14.87;;;2.70;99.90;;;;;;5123042;27;20259;-64
2024/01/08 12:23:23;;;;;;;15.00;14.40;;;2.80;99.90;;;;;;5114211;27;20696;-66
2024/01/08 12:25:50;;;;;;;16.20;15.50;;;2.80;99.90;;;;;;5114769;28;20222;-65
2024/01/08 12:28:18;;;;;;;15.95;15.35;;;2.80;99.90;;;;;;5118936;27;20251;-65
2024/01/08 12:30:46;;;;;;;14.10;13.50;;;3.00;99.90;;;;;;5115440;28;20209;-64
2024/01/08 12:33:13;;;;;;;14.93;14.32;;;3.00;99.90;;;;;;5119220;27;20833;-63
2024/01/08 12:35:42;;;;;;;15.63;14.97;;;3.10;99.90;;;;;;5113818;27;20198;-67
2024/01/08 12:38:11;;;;;;;14.60;14.07;;;3.10;99.90;;;;;;5124479;27;20209;-65